sensor_id;sensor_type;location;lat;lon;timestamp;P1;durP1;ratioP1;P2;durP2;ratioP2
6378;SDS011;3222;48.858;10.128;2022-08-23T00:01:10;1.20;;;1.10;;
6378;SDS011;3222;48.858;10.128;2022-08-23T00:03:37;1.40;;;1.20;;
6378;SDS011;3222;48.858;10.128;2022-08-23T00:06:04;1.53;;;1.30;;
6378;SDS011;3222;48.858;10.128;2022-08-23T00:08:30;1.40;;;1.10;;
6378;SDS011;3222;48.858;10.128;2022-08-23T00:10:56;1.77;;;1.20;;
6378;SDS011;3222;48.858;10.128;2022-08-23T00:13:22;1.27;;;1.20;;
6378;SDS011;3222;48.858;10.128;2022-08-23T00:15:48;1.43;;;1.30;;
6378;SDS011;3222;48.858;10.128;2022-08-23T00:18:14;1.33;;;1.27;;
6378;SDS011;3222;48.858;10.128;2022-08-23T00:20:40;1.20;;;1.20;;
6378;SDS011;3222;48.858;10.128;2022-08-23T00:23:06;3.13;;;1.40;;
6378;SDS011;3222;48.858;10.128;2022-08-23T00:25:32;1.83;;;1.20;;
6378;SDS011;3222;48.858;10.128;2022-08-23T00:27:58;1.20;;;1.20;;
6378;SDS011;3222;48.858;10.128;2022-08-23T00:30:23;1.67;;;1.10;;
6378;SDS011;3222;48.858;10.128;2022-08-23T00:32:49;1.30;;;1.13;;
6378;SDS011;3222;48.858;10.128;2022-08-23T00:35:16;1.70;;;1.20;;
6378;SDS011;3222;48.858;10.128;2022-08-23T00:37:42;1.10;;;1.10;;
6378;SDS011;3222;48.858;10.128;2022-08-23T00:40:09;1.20;;;1.10;;
6378;SDS011;3222;48.858;10.128;2022-08-23T00:43:21;1.83;;;1.20;;
6378;SDS011;3222;48.858;10.128;2022-08-23T00:48:51;1.00;;;1.00;;
6378;SDS011;3222;48.858;10.128;2022-08-23T00:51:22;1.63;;;1.20;;
6378;SDS011;3222;48.858;10.128;2022-08-23T00:53:56;2.27;;;1.30;;
6378;SDS011;3222;48.858;10.128;2022-08-23T00:56:26;1.10;;;1.10;;
6378;SDS011;3222;48.858;10.128;2022-08-23T00:58:57;1.10;;;1.00;;
6378;SDS011;3222;48.858;10.128;2022-08-23T01:01:24;2.87;;;1.33;;
6378;SDS011;3222;48.858;10.128;2022-08-23T01:03:51;1.20;;;1.10;;
6378;SDS011;3222;48.858;10.128;2022-08-23T01:06:34;2.30;;;1.20;;
6378;SDS011;3222;48.858;10.128;2022-08-23T01:09:09;1.10;;;1.00;;
6378;SDS011;3222;48.858;10.128;2022-08-23T01:11:41;1.37;;;1.10;;
6378;SDS011;3222;48.858;10.128;2022-08-23T01:17:22;1.07;;;1.07;;
6378;SDS011;3222;48.858;10.128;2022-08-23T01:19:57;2.37;;;1.30;;
6378;SDS011;3222;48.858;10.128;2022-08-23T01:24:58;2.53;;;1.60;;
6378;SDS011;3222;48.858;10.128;2022-08-23T01:27:26;2.27;;;1.27;;
6378;SDS011;3222;48.858;10.128;2022-08-23T01:29:52;1.67;;;1.00;;
6378;SDS011;3222;48.858;10.128;2022-08-23T01:32:18;1.53;;;1.20;;
6378;SDS011;3222;48.858;10.128;2022-08-23T01:34:44;2.13;;;1.50;;
6378;SDS011;3222;48.858;10.128;2022-08-23T01:37:10;1.37;;;1.27;;
6378;SDS011;3222;48.858;10.128;2022-08-23T01:39:38;1.40;;;1.20;;
6378;SDS011;3222;48.858;10.128;2022-08-23T01:42:05;2.80;;;1.40;;
6378;SDS011;3222;48.858;10.128;2022-08-23T01:44:32;1.80;;;1.47;;
6378;SDS011;3222;48.858;10.128;2022-08-23T01:46:59;1.37;;;1.30;;
6378;SDS011;3222;48.858;10.128;2022-08-23T01:49:25;1.93;;;1.50;;
6378;SDS011;3222;48.858;10.128;2022-08-23T01:51:50;1.53;;;1.10;;
6378;SDS011;3222;48.858;10.128;2022-08-23T01:54:16;2.10;;;1.40;;
6378;SDS011;3222;48.858;10.128;2022-08-23T01:56:44;1.90;;;1.20;;
6378;SDS011;3222;48.858;10.128;2022-08-23T01:59:11;1.47;;;1.37;;
6378;SDS011;3222;48.858;10.128;2022-08-23T02:01:46;2.33;;;1.30;;
6378;SDS011;3222;48.858;10.128;2022-08-23T02:04:12;1.40;;;1.30;;
6378;SDS011;3222;48.858;10.128;2022-08-23T02:06:37;2.13;;;1.33;;
6378;SDS011;3222;48.858;10.128;2022-08-23T02:09:04;1.57;;;1.40;;
6378;SDS011;3222;48.858;10.128;2022-08-23T02:11:36;1.67;;;1.57;;
6378;SDS011;3222;48.858;10.128;2022-08-23T02:14:04;1.60;;;1.50;;
6378;SDS011;3222;48.858;10.128;2022-08-23T02:16:44;1.63;;;1.30;;
6378;SDS011;3222;48.858;10.128;2022-08-23T02:19:15;1.40;;;1.30;;
6378;SDS011;3222;48.858;10.128;2022-08-23T02:21:41;1.50;;;1.40;;
6378;SDS011;3222;48.858;10.128;2022-08-23T02:24:12;1.40;;;1.30;;
6378;SDS011;3222;48.858;10.128;2022-08-23T02:26:40;4.53;;;1.57;;
6378;SDS011;3222;48.858;10.128;2022-08-23T02:29:10;2.30;;;1.37;;
6378;SDS011;3222;48.858;10.128;2022-08-23T02:31:37;1.70;;;1.33;;
6378;SDS011;3222;48.858;10.128;2022-08-23T02:34:04;2.00;;;1.50;;
6378;SDS011;3222;48.858;10.128;2022-08-23T02:36:31;2.77;;;1.30;;
6378;SDS011;3222;48.858;10.128;2022-08-23T02:38:57;3.63;;;1.40;;
6378;SDS011;3222;48.858;10.128;2022-08-23T02:41:24;1.60;;;1.50;;
6378;SDS011;3222;48.858;10.128;2022-08-23T02:43:51;1.27;;;1.27;;
6378;SDS011;3222;48.858;10.128;2022-08-23T02:46:18;1.40;;;1.30;;
6378;SDS011;3222;48.858;10.128;2022-08-23T02:48:45;3.27;;;1.57;;
6378;SDS011;3222;48.858;10.128;2022-08-23T02:51:11;1.77;;;1.60;;
6378;SDS011;3222;48.858;10.128;2022-08-23T02:53:37;1.60;;;1.50;;
6378;SDS011;3222;48.858;10.128;2022-08-23T02:56:06;1.87;;;1.40;;
6378;SDS011;3222;48.858;10.128;2022-08-23T02:58:32;1.40;;;1.30;;
6378;SDS011;3222;48.858;10.128;2022-08-23T03:00:58;1.90;;;1.80;;
6378;SDS011;3222;48.858;10.128;2022-08-23T03:03:25;2.23;;;1.40;;
6378;SDS011;3222;48.858;10.128;2022-08-23T03:05:52;1.50;;;1.40;;
6378;SDS011;3222;48.858;10.128;2022-08-23T03:08:19;1.73;;;1.23;;
6378;SDS011;3222;48.858;10.128;2022-08-23T03:10:47;1.67;;;1.37;;
6378;SDS011;3222;48.858;10.128;2022-08-23T03:13:15;1.70;;;1.60;;
6378;SDS011;3222;48.858;10.128;2022-08-23T03:15:42;1.40;;;1.30;;
6378;SDS011;3222;48.858;10.128;2022-08-23T03:18:08;2.27;;;1.33;;
6378;SDS011;3222;48.858;10.128;2022-08-23T03:20:38;3.70;;;1.50;;
6378;SDS011;3222;48.858;10.128;2022-08-23T03:23:06;2.97;;;1.40;;
6378;SDS011;3222;48.858;10.128;2022-08-23T03:25:33;1.67;;;1.57;;
6378;SDS011;3222;48.858;10.128;2022-08-23T03:28:05;1.83;;;1.50;;
6378;SDS011;3222;48.858;10.128;2022-08-23T03:30:34;1.53;;;1.43;;
6378;SDS011;3222;48.858;10.128;2022-08-23T03:33:02;2.27;;;1.27;;
6378;SDS011;3222;48.858;10.128;2022-08-23T03:35:28;1.40;;;1.33;;
6378;SDS011;3222;48.858;10.128;2022-08-23T03:37:54;2.23;;;1.40;;
6378;SDS011;3222;48.858;10.128;2022-08-23T03:40:21;1.73;;;1.33;;
6378;SDS011;3222;48.858;10.128;2022-08-23T03:42:48;3.17;;;1.50;;
6378;SDS011;3222;48.858;10.128;2022-08-23T03:45:16;1.40;;;1.30;;
6378;SDS011;3222;48.858;10.128;2022-08-23T03:47:43;1.97;;;1.47;;
6378;SDS011;3222;48.858;10.128;2022-08-23T03:50:09;1.60;;;1.50;;
6378;SDS011;3222;48.858;10.128;2022-08-23T03:52:40;1.57;;;1.47;;
6378;SDS011;3222;48.858;10.128;2022-08-23T03:55:06;1.50;;;1.40;;
6378;SDS011;3222;48.858;10.128;2022-08-23T03:57:34;1.70;;;1.23;;
6378;SDS011;3222;48.858;10.128;2022-08-23T04:00:00;1.43;;;1.33;;
6378;SDS011;3222;48.858;10.128;2022-08-23T04:02:28;1.63;;;1.53;;
6378;SDS011;3222;48.858;10.128;2022-08-23T04:04:53;3.40;;;1.40;;
6378;SDS011;3222;48.858;10.128;2022-08-23T04:07:47;1.50;;;1.40;;
6378;SDS011;3222;48.858;10.128;2022-08-23T04:10:12;1.33;;;1.20;;
6378;SDS011;3222;48.858;10.128;2022-08-23T04:12:40;1.70;;;1.40;;
6378;SDS011;3222;48.858;10.128;2022-08-23T04:15:11;1.83;;;1.40;;
6378;SDS011;3222;48.858;10.128;2022-08-23T04:17:38;1.50;;;1.40;;
6378;SDS011;3222;48.858;10.128;2022-08-23T04:20:04;1.67;;;1.50;;
6378;SDS011;3222;48.858;10.128;2022-08-23T04:22:35;1.60;;;1.50;;
6378;SDS011;3222;48.858;10.128;2022-08-23T04:25:01;1.57;;;1.47;;
6378;SDS011;3222;48.858;10.128;2022-08-23T04:27:27;1.40;;;1.30;;
6378;SDS011;3222;48.858;10.128;2022-08-23T04:29:53;2.13;;;1.40;;
6378;SDS011;3222;48.858;10.128;2022-08-23T04:32:19;2.10;;;1.43;;
6378;SDS011;3222;48.858;10.128;2022-08-23T04:34:45;1.63;;;1.43;;
6378;SDS011;3222;48.858;10.128;2022-08-23T04:37:13;1.53;;;1.43;;
6378;SDS011;3222;48.858;10.128;2022-08-23T04:39:40;1.50;;;1.40;;
6378;SDS011;3222;48.858;10.128;2022-08-23T04:42:30;2.43;;;1.50;;
6378;SDS011;3222;48.858;10.128;2022-08-23T04:44:56;2.13;;;1.47;;
6378;SDS011;3222;48.858;10.128;2022-08-23T04:47:22;2.40;;;1.30;;
6378;SDS011;3222;48.858;10.128;2022-08-23T04:49:50;2.30;;;1.60;;
6378;SDS011;3222;48.858;10.128;2022-08-23T04:52:15;1.80;;;1.53;;
6378;SDS011;3222;48.858;10.128;2022-08-23T04:54:41;1.57;;;1.30;;
6378;SDS011;3222;48.858;10.128;2022-08-23T04:57:36;1.70;;;1.60;;
6378;SDS011;3222;48.858;10.128;2022-08-23T05:00:02;1.70;;;1.60;;
6378;SDS011;3222;48.858;10.128;2022-08-23T05:02:29;1.87;;;1.67;;
6378;SDS011;3222;48.858;10.128;2022-08-23T05:04:55;1.60;;;1.50;;
6378;SDS011;3222;48.858;10.128;2022-08-23T05:07:20;1.97;;;1.60;;
6378;SDS011;3222;48.858;10.128;2022-08-23T05:09:46;1.60;;;1.50;;
6378;SDS011;3222;48.858;10.128;2022-08-23T05:12:12;2.27;;;1.50;;
6378;SDS011;3222;48.858;10.128;2022-08-23T05:14:38;1.70;;;1.57;;
6378;SDS011;3222;48.858;10.128;2022-08-23T05:17:04;2.00;;;1.43;;
6378;SDS011;3222;48.858;10.128;2022-08-23T05:19:32;1.57;;;1.47;;
6378;SDS011;3222;48.858;10.128;2022-08-23T05:21:59;1.53;;;1.40;;
6378;SDS011;3222;48.858;10.128;2022-08-23T05:24:41;1.70;;;1.60;;
6378;SDS011;3222;48.858;10.128;2022-08-23T05:27:10;1.80;;;1.70;;
6378;SDS011;3222;48.858;10.128;2022-08-23T05:29:36;1.50;;;1.40;;
6378;SDS011;3222;48.858;10.128;2022-08-23T05:32:02;1.60;;;1.50;;
6378;SDS011;3222;48.858;10.128;2022-08-23T05:34:28;2.70;;;1.77;;
6378;SDS011;3222;48.858;10.128;2022-08-23T05:36:56;1.93;;;1.70;;
6378;SDS011;3222;48.858;10.128;2022-08-23T05:39:27;1.70;;;1.60;;
6378;SDS011;3222;48.858;10.128;2022-08-23T05:41:53;1.60;;;1.50;;
6378;SDS011;3222;48.858;10.128;2022-08-23T05:44:19;1.80;;;1.70;;
6378;SDS011;3222;48.858;10.128;2022-08-23T05:46:45;1.70;;;1.60;;
6378;SDS011;3222;48.858;10.128;2022-08-23T05:49:25;3.33;;;1.43;;
6378;SDS011;3222;48.858;10.128;2022-08-23T05:51:51;1.50;;;1.40;;
6378;SDS011;3222;48.858;10.128;2022-08-23T05:54:19;1.60;;;1.50;;
6378;SDS011;3222;48.858;10.128;2022-08-23T05:56:54;4.13;;;2.00;;
6378;SDS011;3222;48.858;10.128;2022-08-23T05:59:20;1.43;;;1.37;;
6378;SDS011;3222;48.858;10.128;2022-08-23T06:01:46;1.67;;;1.57;;
6378;SDS011;3222;48.858;10.128;2022-08-23T06:04:16;2.10;;;1.50;;
6378;SDS011;3222;48.858;10.128;2022-08-23T06:06:44;1.80;;;1.70;;
6378;SDS011;3222;48.858;10.128;2022-08-23T06:09:12;2.33;;;2.13;;
6378;SDS011;3222;48.858;10.128;2022-08-23T06:11:42;2.30;;;2.10;;
6378;SDS011;3222;48.858;10.128;2022-08-23T06:14:09;2.77;;;2.20;;
6378;SDS011;3222;48.858;10.128;2022-08-23T06:16:36;3.10;;;2.87;;
6378;SDS011;3222;48.858;10.128;2022-08-23T06:19:05;4.50;;;3.10;;
6378;SDS011;3222;48.858;10.128;2022-08-23T06:21:47;2.63;;;2.20;;
6378;SDS011;3222;48.858;10.128;2022-08-23T06:24:20;2.07;;;1.97;;
6378;SDS011;3222;48.858;10.128;2022-08-23T06:26:52;2.27;;;2.07;;
6378;SDS011;3222;48.858;10.128;2022-08-23T06:29:18;2.30;;;2.10;;
6378;SDS011;3222;48.858;10.128;2022-08-23T06:31:48;1.97;;;1.83;;
6378;SDS011;3222;48.858;10.128;2022-08-23T06:34:27;1.90;;;1.80;;
6378;SDS011;3222;48.858;10.128;2022-08-23T06:37:20;2.07;;;1.97;;
6378;SDS011;3222;48.858;10.128;2022-08-23T06:39:59;2.80;;;1.90;;
6378;SDS011;3222;48.858;10.128;2022-08-23T06:42:37;2.33;;;2.10;;
6378;SDS011;3222;48.858;10.128;2022-08-23T06:45:03;6.50;;;2.90;;
6378;SDS011;3222;48.858;10.128;2022-08-23T06:47:38;5.70;;;3.50;;
6378;SDS011;3222;48.858;10.128;2022-08-23T06:50:04;6.30;;;4.10;;
6378;SDS011;3222;48.858;10.128;2022-08-23T06:52:53;7.70;;;4.73;;
6378;SDS011;3222;48.858;10.128;2022-08-23T06:55:29;8.13;;;4.53;;
6378;SDS011;3222;48.858;10.128;2022-08-23T06:58:33;7.13;;;4.63;;
6378;SDS011;3222;48.858;10.128;2022-08-23T07:04:06;4.33;;;3.50;;
6378;SDS011;3222;48.858;10.128;2022-08-23T07:06:52;4.27;;;3.53;;
6378;SDS011;3222;48.858;10.128;2022-08-23T07:09:18;3.77;;;3.40;;
6378;SDS011;3222;48.858;10.128;2022-08-23T07:11:43;4.03;;;3.60;;
6378;SDS011;3222;48.858;10.128;2022-08-23T07:14:11;3.60;;;3.30;;
6378;SDS011;3222;48.858;10.128;2022-08-23T07:16:40;4.33;;;3.40;;
6378;SDS011;3222;48.858;10.128;2022-08-23T07:19:09;3.97;;;3.43;;
6378;SDS011;3222;48.858;10.128;2022-08-23T07:21:36;4.73;;;3.30;;
6378;SDS011;3222;48.858;10.128;2022-08-23T07:24:03;3.90;;;3.47;;
6378;SDS011;3222;48.858;10.128;2022-08-23T07:26:31;4.83;;;3.40;;
6378;SDS011;3222;48.858;10.128;2022-08-23T07:28:57;4.60;;;3.33;;
6378;SDS011;3222;48.858;10.128;2022-08-23T07:31:24;4.40;;;2.90;;
6378;SDS011;3222;48.858;10.128;2022-08-23T07:33:53;4.63;;;3.53;;
6378;SDS011;3222;48.858;10.128;2022-08-23T07:36:21;5.87;;;3.40;;
6378;SDS011;3222;48.858;10.128;2022-08-23T07:38:48;10.47;;;3.40;;
6378;SDS011;3222;48.858;10.128;2022-08-23T07:41:15;5.90;;;3.40;;
6378;SDS011;3222;48.858;10.128;2022-08-23T07:43:45;5.07;;;3.47;;
6378;SDS011;3222;48.858;10.128;2022-08-23T07:46:11;5.63;;;3.90;;
6378;SDS011;3222;48.858;10.128;2022-08-23T07:48:38;9.70;;;3.70;;
6378;SDS011;3222;48.858;10.128;2022-08-23T07:51:18;3.27;;;2.87;;
6378;SDS011;3222;48.858;10.128;2022-08-23T07:53:44;4.50;;;3.03;;
6378;SDS011;3222;48.858;10.128;2022-08-23T07:56:12;4.03;;;2.97;;
6378;SDS011;3222;48.858;10.128;2022-08-23T07:59:02;5.23;;;2.90;;
6378;SDS011;3222;48.858;10.128;2022-08-23T08:01:45;3.37;;;2.93;;
6378;SDS011;3222;48.858;10.128;2022-08-23T08:04:11;4.97;;;2.97;;
6378;SDS011;3222;48.858;10.128;2022-08-23T08:06:42;3.53;;;2.40;;
6378;SDS011;3222;48.858;10.128;2022-08-23T08:09:11;5.33;;;2.77;;
6378;SDS011;3222;48.858;10.128;2022-08-23T08:11:39;4.57;;;2.70;;
6378;SDS011;3222;48.858;10.128;2022-08-23T08:14:09;3.60;;;2.43;;
6378;SDS011;3222;48.858;10.128;2022-08-23T08:16:44;2.53;;;2.33;;
6378;SDS011;3222;48.858;10.128;2022-08-23T08:19:17;2.73;;;2.50;;
6378;SDS011;3222;48.858;10.128;2022-08-23T08:22:09;7.93;;;2.53;;
6378;SDS011;3222;48.858;10.128;2022-08-23T08:24:56;3.57;;;2.27;;
6378;SDS011;3222;48.858;10.128;2022-08-23T08:27:22;10.13;;;2.40;;
6378;SDS011;3222;48.858;10.128;2022-08-23T08:29:47;5.40;;;2.20;;
6378;SDS011;3222;48.858;10.128;2022-08-23T08:32:13;3.23;;;1.90;;
6378;SDS011;3222;48.858;10.128;2022-08-23T08:34:39;2.23;;;2.00;;
6378;SDS011;3222;48.858;10.128;2022-08-23T08:37:06;4.13;;;2.10;;
6378;SDS011;3222;48.858;10.128;2022-08-23T08:39:31;1.97;;;1.63;;
6378;SDS011;3222;48.858;10.128;2022-08-23T08:52:46;1.83;;;1.60;;
6378;SDS011;3222;48.858;10.128;2022-08-23T08:55:45;1.37;;;1.27;;
6378;SDS011;3222;48.858;10.128;2022-08-23T08:58:16;2.23;;;1.40;;
6378;SDS011;3222;48.858;10.128;2022-08-23T09:00:47;1.60;;;1.50;;
6378;SDS011;3222;48.858;10.128;2022-08-23T09:03:13;2.10;;;1.67;;
6378;SDS011;3222;48.858;10.128;2022-08-23T09:11:50;1.57;;;1.40;;
6378;SDS011;3222;48.858;10.128;2022-08-23T09:17:02;3.03;;;1.50;;
6378;SDS011;3222;48.858;10.128;2022-08-23T09:19:32;3.33;;;1.40;;
6378;SDS011;3222;48.858;10.128;2022-08-23T09:22:03;1.60;;;1.50;;
6378;SDS011;3222;48.858;10.128;2022-08-23T09:24:37;2.33;;;1.50;;
6378;SDS011;3222;48.858;10.128;2022-08-23T09:27:13;1.83;;;1.30;;
6378;SDS011;3222;48.858;10.128;2022-08-23T09:29:42;3.27;;;1.87;;
6378;SDS011;3222;48.858;10.128;2022-08-23T09:35:19;1.40;;;1.30;;
6378;SDS011;3222;48.858;10.128;2022-08-23T09:37:58;1.63;;;1.53;;
6378;SDS011;3222;48.858;10.128;2022-08-23T09:40:44;2.13;;;1.40;;
6378;SDS011;3222;48.858;10.128;2022-08-23T09:43:17;1.50;;;1.40;;
6378;SDS011;3222;48.858;10.128;2022-08-23T09:48:13;2.00;;;1.40;;
6378;SDS011;3222;48.858;10.128;2022-08-23T09:51:01;3.60;;;1.40;;
6378;SDS011;3222;48.858;10.128;2022-08-23T09:53:35;3.47;;;1.93;;
6378;SDS011;3222;48.858;10.128;2022-08-23T09:56:10;1.43;;;1.33;;
6378;SDS011;3222;48.858;10.128;2022-08-23T09:58:40;2.60;;;1.70;;
6378;SDS011;3222;48.858;10.128;2022-08-23T10:03:47;2.77;;;1.60;;
6378;SDS011;3222;48.858;10.128;2022-08-23T10:06:32;1.50;;;1.30;;
6378;SDS011;3222;48.858;10.128;2022-08-23T10:09:03;2.13;;;1.50;;
6378;SDS011;3222;48.858;10.128;2022-08-23T10:11:37;2.53;;;1.30;;
6378;SDS011;3222;48.858;10.128;2022-08-23T10:14:11;2.00;;;1.50;;
6378;SDS011;3222;48.858;10.128;2022-08-23T10:16:40;2.33;;;1.40;;
6378;SDS011;3222;48.858;10.128;2022-08-23T10:22:19;2.53;;;1.60;;
6378;SDS011;3222;48.858;10.128;2022-08-23T10:25:13;2.78;;;1.40;;
6378;SDS011;3222;48.858;10.128;2022-08-23T10:33:52;2.80;;;1.60;;
6378;SDS011;3222;48.858;10.128;2022-08-23T10:39:23;1.53;;;1.33;;
6378;SDS011;3222;48.858;10.128;2022-08-23T10:44:30;1.87;;;1.50;;
6378;SDS011;3222;48.858;10.128;2022-08-23T10:47:23;3.17;;;1.37;;
6378;SDS011;3222;48.858;10.128;2022-08-23T10:50:12;3.27;;;1.70;;
6378;SDS011;3222;48.858;10.128;2022-08-23T10:55:17;1.87;;;1.40;;
6378;SDS011;3222;48.858;10.128;2022-08-23T10:58:02;1.42;;;1.33;;
6378;SDS011;3222;48.858;10.128;2022-08-23T11:00:31;1.60;;;1.50;;
6378;SDS011;3222;48.858;10.128;2022-08-23T11:03:07;2.50;;;1.50;;
6378;SDS011;3222;48.858;10.128;2022-08-23T11:08:47;2.10;;;1.57;;
6378;SDS011;3222;48.858;10.128;2022-08-23T11:17:27;2.53;;;1.55;;
6378;SDS011;3222;48.858;10.128;2022-08-23T11:20:12;1.55;;;1.42;;
6378;SDS011;3222;48.858;10.128;2022-08-23T11:23:16;1.55;;;1.38;;
6378;SDS011;3222;48.858;10.128;2022-08-23T11:25:43;4.30;;;2.43;;
6378;SDS011;3222;48.858;10.128;2022-08-23T11:31:33;1.77;;;1.33;;
6378;SDS011;3222;48.858;10.128;2022-08-23T11:33:51;1.85;;;1.25;;
6378;SDS011;3222;48.858;10.128;2022-08-23T11:36:27;2.25;;;1.42;;
6378;SDS011;3222;48.858;10.128;2022-08-23T11:44:15;2.80;;;1.50;;
6378;SDS011;3222;48.858;10.128;2022-08-23T12:03:55;2.33;;;1.60;;
6378;SDS011;3222;48.858;10.128;2022-08-23T12:06:40;2.00;;;1.48;;
6378;SDS011;3222;48.858;10.128;2022-08-23T12:14:46;3.25;;;1.50;;
6378;SDS011;3222;48.858;10.128;2022-08-23T12:19:44;3.13;;;1.70;;
6378;SDS011;3222;48.858;10.128;2022-08-23T12:22:22;1.45;;;1.35;;
6378;SDS011;3222;48.858;10.128;2022-08-23T12:25:00;1.85;;;1.45;;
6378;SDS011;3222;48.858;10.128;2022-08-23T12:28:33;1.50;;;1.40;;
6378;SDS011;3222;48.858;10.128;2022-08-23T12:31:02;5.40;;;1.55;;
6378;SDS011;3222;48.858;10.128;2022-08-23T12:36:16;1.55;;;1.45;;
6378;SDS011;3222;48.858;10.128;2022-08-23T12:39:04;2.03;;;1.60;;
6378;SDS011;3222;48.858;10.128;2022-08-23T12:44:33;1.30;;;1.20;;
6378;SDS011;3222;48.858;10.128;2022-08-23T12:47:08;1.67;;;1.58;;
6378;SDS011;3222;48.858;10.128;2022-08-23T12:50:02;2.17;;;1.50;;
6378;SDS011;3222;48.858;10.128;2022-08-23T12:52:33;1.75;;;1.40;;
6378;SDS011;3222;48.858;10.128;2022-08-23T12:55:01;2.13;;;1.70;;
6378;SDS011;3222;48.858;10.128;2022-08-23T12:57:37;1.55;;;1.30;;
6378;SDS011;3222;48.858;10.128;2022-08-23T13:02:42;2.28;;;1.33;;
6378;SDS011;3222;48.858;10.128;2022-08-23T13:05:30;3.85;;;1.73;;
6378;SDS011;3222;48.858;10.128;2022-08-23T13:08:01;1.73;;;1.40;;
6378;SDS011;3222;48.858;10.128;2022-08-23T13:10:31;1.75;;;1.40;;
6378;SDS011;3222;48.858;10.128;2022-08-23T13:12:57;4.32;;;1.70;;
6378;SDS011;3222;48.858;10.128;2022-08-23T13:15:40;2.55;;;1.60;;
6378;SDS011;3222;48.858;10.128;2022-08-23T13:18:28;3.03;;;1.45;;
6378;SDS011;3222;48.858;10.128;2022-08-23T13:23:47;3.00;;;1.73;;
6378;SDS011;3222;48.858;10.128;2022-08-23T13:26:27;3.45;;;1.40;;
6378;SDS011;3222;48.858;10.128;2022-08-23T13:31:57;2.38;;;1.67;;
6378;SDS011;3222;48.858;10.128;2022-08-23T13:34:59;3.85;;;1.50;;
6378;SDS011;3222;48.858;10.128;2022-08-23T13:39:58;1.67;;;1.30;;
6378;SDS011;3222;48.858;10.128;2022-08-23T13:42:35;3.47;;;1.45;;
6378;SDS011;3222;48.858;10.128;2022-08-23T13:45:12;3.28;;;1.60;;
6378;SDS011;3222;48.858;10.128;2022-08-23T13:47:42;2.65;;;1.38;;
6378;SDS011;3222;48.858;10.128;2022-08-23T13:50:22;1.90;;;1.70;;
6378;SDS011;3222;48.858;10.128;2022-08-23T13:52:50;1.73;;;1.60;;
6378;SDS011;3222;48.858;10.128;2022-08-23T13:55:18;2.10;;;1.60;;
6378;SDS011;3222;48.858;10.128;2022-08-23T13:57:44;2.78;;;1.67;;
6378;SDS011;3222;48.858;10.128;2022-08-23T14:00:10;2.35;;;1.42;;
6378;SDS011;3222;48.858;10.128;2022-08-23T14:02:37;1.30;;;1.20;;
6378;SDS011;3222;48.858;10.128;2022-08-23T14:05:07;2.88;;;1.40;;
6378;SDS011;3222;48.858;10.128;2022-08-23T14:07:34;2.50;;;1.65;;
6378;SDS011;3222;48.858;10.128;2022-08-23T14:10:00;2.22;;;1.45;;
6378;SDS011;3222;48.858;10.128;2022-08-23T14:12:29;2.55;;;1.58;;
6378;SDS011;3222;48.858;10.128;2022-08-23T14:14:57;1.50;;;1.35;;
6378;SDS011;3222;48.858;10.128;2022-08-23T14:17:24;2.03;;;1.38;;
6378;SDS011;3222;48.858;10.128;2022-08-23T14:19:51;2.25;;;1.60;;
6378;SDS011;3222;48.858;10.128;2022-08-23T14:22:17;3.33;;;1.60;;
6378;SDS011;3222;48.858;10.128;2022-08-23T14:24:43;1.30;;;1.20;;
6378;SDS011;3222;48.858;10.128;2022-08-23T14:27:09;1.40;;;1.30;;
6378;SDS011;3222;48.858;10.128;2022-08-23T14:29:35;4.13;;;1.85;;
6378;SDS011;3222;48.858;10.128;2022-08-23T14:32:02;2.53;;;1.50;;
6378;SDS011;3222;48.858;10.128;2022-08-23T14:34:28;2.92;;;1.52;;
6378;SDS011;3222;48.858;10.128;2022-08-23T14:36:55;4.03;;;1.30;;
6378;SDS011;3222;48.858;10.128;2022-08-23T14:39:22;4.10;;;1.50;;
6378;SDS011;3222;48.858;10.128;2022-08-23T14:41:48;2.28;;;1.60;;
6378;SDS011;3222;48.858;10.128;2022-08-23T14:44:15;2.15;;;1.40;;
6378;SDS011;3222;48.858;10.128;2022-08-23T14:46:42;1.92;;;1.40;;
6378;SDS011;3222;48.858;10.128;2022-08-23T14:49:09;4.78;;;1.35;;
6378;SDS011;3222;48.858;10.128;2022-08-23T14:51:40;5.57;;;1.70;;
6378;SDS011;3222;48.858;10.128;2022-08-23T14:54:10;3.58;;;1.73;;
6378;SDS011;3222;48.858;10.128;2022-08-23T14:56:39;4.63;;;1.48;;
6378;SDS011;3222;48.858;10.128;2022-08-23T14:59:05;4.10;;;1.40;;
6378;SDS011;3222;48.858;10.128;2022-08-23T15:01:31;1.42;;;1.33;;
6378;SDS011;3222;48.858;10.128;2022-08-23T15:03:57;1.50;;;1.40;;
6378;SDS011;3222;48.858;10.128;2022-08-23T15:06:25;1.92;;;1.40;;
6378;SDS011;3222;48.858;10.128;2022-08-23T15:08:51;5.20;;;1.52;;
6378;SDS011;3222;48.858;10.128;2022-08-23T15:11:17;1.92;;;1.40;;
6378;SDS011;3222;48.858;10.128;2022-08-23T15:13:43;1.67;;;1.27;;
6378;SDS011;3222;48.858;10.128;2022-08-23T15:16:11;2.00;;;1.27;;
6378;SDS011;3222;48.858;10.128;2022-08-23T15:18:40;1.75;;;1.50;;
6378;SDS011;3222;48.858;10.128;2022-08-23T15:21:10;2.10;;;1.60;;
6378;SDS011;3222;48.858;10.128;2022-08-23T15:23:35;1.88;;;1.35;;
6378;SDS011;3222;48.858;10.128;2022-08-23T15:26:01;1.50;;;1.40;;
6378;SDS011;3222;48.858;10.128;2022-08-23T15:28:28;3.70;;;1.40;;
6378;SDS011;3222;48.858;10.128;2022-08-23T15:30:53;4.10;;;1.63;;
6378;SDS011;3222;48.858;10.128;2022-08-23T15:33:19;1.55;;;1.40;;
6378;SDS011;3222;48.858;10.128;2022-08-23T15:35:46;2.28;;;1.40;;
6378;SDS011;3222;48.858;10.128;2022-08-23T15:38:16;5.88;;;1.40;;
6378;SDS011;3222;48.858;10.128;2022-08-23T15:40:43;4.00;;;1.60;;
6378;SDS011;3222;48.858;10.128;2022-08-23T15:43:09;4.28;;;1.77;;
6378;SDS011;3222;48.858;10.128;2022-08-23T15:45:35;2.10;;;1.50;;
6378;SDS011;3222;48.858;10.128;2022-08-23T15:48:05;5.18;;;1.23;;
6378;SDS011;3222;48.858;10.128;2022-08-23T15:50:37;1.60;;;1.50;;
6378;SDS011;3222;48.858;10.128;2022-08-23T15:53:06;2.53;;;1.50;;
6378;SDS011;3222;48.858;10.128;2022-08-23T15:55:32;2.45;;;1.55;;
6378;SDS011;3222;48.858;10.128;2022-08-23T15:57:57;14.20;;;2.08;;
6378;SDS011;3222;48.858;10.128;2022-08-23T16:00:24;3.85;;;1.70;;
6378;SDS011;3222;48.858;10.128;2022-08-23T16:02:51;3.55;;;1.40;;
6378;SDS011;3222;48.858;10.128;2022-08-23T16:05:18;1.40;;;1.35;;
6378;SDS011;3222;48.858;10.128;2022-08-23T16:07:44;2.00;;;1.77;;
6378;SDS011;3222;48.858;10.128;2022-08-23T16:10:11;2.70;;;1.70;;
6378;SDS011;3222;48.858;10.128;2022-08-23T16:12:38;3.08;;;1.80;;
6378;SDS011;3222;48.858;10.128;2022-08-23T16:15:04;3.95;;;1.38;;
6378;SDS011;3222;48.858;10.128;2022-08-23T16:17:31;2.33;;;1.40;;
6378;SDS011;3222;48.858;10.128;2022-08-23T16:19:58;2.17;;;1.50;;
6378;SDS011;3222;48.858;10.128;2022-08-23T16:22:23;1.60;;;1.50;;
6378;SDS011;3222;48.858;10.128;2022-08-23T16:24:49;2.17;;;1.95;;
6378;SDS011;3222;48.858;10.128;2022-08-23T16:27:15;2.47;;;1.40;;
6378;SDS011;3222;48.858;10.128;2022-08-23T16:29:40;1.30;;;1.30;;
6378;SDS011;3222;48.858;10.128;2022-08-23T16:32:06;2.10;;;1.40;;
6378;SDS011;3222;48.858;10.128;2022-08-23T16:34:33;1.98;;;1.50;;
6378;SDS011;3222;48.858;10.128;2022-08-23T16:37:01;1.67;;;1.50;;
6378;SDS011;3222;48.858;10.128;2022-08-23T16:39:31;2.65;;;1.75;;
6378;SDS011;3222;48.858;10.128;2022-08-23T16:42:01;2.45;;;1.38;;
6378;SDS011;3222;48.858;10.128;2022-08-23T16:44:29;2.20;;;1.42;;
6378;SDS011;3222;48.858;10.128;2022-08-23T16:46:55;2.85;;;1.73;;
6378;SDS011;3222;48.858;10.128;2022-08-23T16:49:21;1.67;;;1.58;;
6378;SDS011;3222;48.858;10.128;2022-08-23T16:51:47;2.28;;;1.60;;
6378;SDS011;3222;48.858;10.128;2022-08-23T16:54:14;2.85;;;1.77;;
6378;SDS011;3222;48.858;10.128;2022-08-23T16:56:40;1.50;;;1.40;;
6378;SDS011;3222;48.858;10.128;2022-08-23T16:59:07;1.77;;;1.40;;
6378;SDS011;3222;48.858;10.128;2022-08-23T17:01:48;3.85;;;1.60;;
6378;SDS011;3222;48.858;10.128;2022-08-23T17:04:16;4.95;;;1.50;;
6378;SDS011;3222;48.858;10.128;2022-08-23T17:06:43;2.13;;;1.50;;
6378;SDS011;3222;48.858;10.128;2022-08-23T17:09:10;2.63;;;1.65;;
6378;SDS011;3222;48.858;10.128;2022-08-23T17:11:36;1.67;;;1.40;;
6378;SDS011;3222;48.858;10.128;2022-08-23T17:14:04;1.98;;;1.52;;
6378;SDS011;3222;48.858;10.128;2022-08-23T17:16:30;1.40;;;1.30;;